Главная страница
METAR-TAF:

METAR-TAF

Аэропорты :

Бекешчаба, Венгрия

широта: 46-41-00N, долгота: 021-09-45E, высота над уровнем моря: 86 м

Текущие метеонаблюдения

Эта сводка был подготовлена 4 часа и 16 минут назад, в 17:45 UTC
Ветер 3 Узел от южный
Температура 24°C
Влажность 69%
Давление 1011 hPa
Видимость 10 км и более
небольшая облачность на высоте 3600 фута, мощно-кучевые.
Рассеянная облачность на высоте 20000 фута

METAR: LHBC 171745Z 18003KT 9999 FEW036TCU BKN200 24/18 Q1011

Время: 00:01 (22:01 UTC)


TAF: отсутствует

Метеонаблюдения и прогнозы для более 4000 аэропортов (сводки METAR и TAF).

Имеющиеся станции представлены на карте желтыми и красными точками.

Чтобы увидеть название станции, наведите на нее мышь.

Затем щелкните, чтобы увидеть метеонаблюдения и метеопрогнозы.

Управление картой: чтобы увеличить масштаб, щелкните зеленые кнопки с черным крестиком; чтобы уменьшить масштаб, щелкните зеленую кнопку с тире; для просмотра соседних карт щелкайте зеленые стрелки.


METAR-TAF: